Weather station in Munich

Current measurement: 19.7°C and 960.78hPa and 74.33% humidity and 758ppm CO2
(at 2024-02-28 20:26:33 )

Previous Measurements

Show/Hide
IDdevice_idTemperaturePressureHumidityCO2Timestamp
13028weather8080719.7°C960.78hPa74.33%758ppm2024-02-28 20:26:33
13027weather8080719.79°C960.87hPa74.37%732ppm2024-02-28 20:11:09
13026weather8080718.6°C960.89hPa75.15%716ppm2024-02-28 18:23:28
13025weather8080718.79°C960.74hPa75.14%705ppm2024-02-28 18:08:05
13024weather8080719.2°C960.62hPa74.87%701ppm2024-02-28 17:37:18
13023weather8080718.9°C960.62hPa74.47%703ppm2024-02-28 17:06:33
13022weather8080719.2°C960.49hPa74.46%697ppm2024-02-28 16:51:10
13021weather8080719.29°C960.44hPa74.42%669ppm2024-02-28 15:34:16
13020weather8080719.4°C960.24hPa74.42%694ppm2024-02-28 15:18:54
13019weather8080719.4°C960.2hPa74.73%700ppm2024-02-28 14:48:09
13018weather8080719.1°C960.12hPa74.72%698ppm2024-02-28 14:17:24
13017weather8080719.4°C960.2hPa74.94%706ppm2024-02-28 13:46:40
13016weather8080719.29°C960.17hPa74.83%714ppm2024-02-28 13:15:54
13015weather8080719.5°C960.13hPa74.76%709ppm2024-02-28 12:45:10
13014weather8080719.9°C958.91hPa75.66%859ppm2024-02-28 08:54:19
13013weather8080719.4°C958.76hPa75.65%835ppm2024-02-28 08:38:56
13012weather8080719.29°C958.68hPa75.95%868ppm2024-02-28 08:08:10
13011weather8080716.5°C957.64hPa79.82%964ppm2024-02-28 06:51:16
13010weather8080716.5°C957.39hPa79.79%980ppm2024-02-28 06:35:54
13009weather8080716.6°C957.15hPa80.01%1027ppm2024-02-28 06:05:09
13008weather8080716.7°C956.92hPa80.17%1083ppm2024-02-28 05:34:24
13007weather8080716.9°C956.31hPa80.03%1011ppm2024-02-28 04:48:16
13006weather8080716.9°C956.09hPa80.02%1014ppm2024-02-28 04:32:53
13005weather8080717°C956.02hPa80.07%1014ppm2024-02-28 04:02:08
13004weather8080717°C955.78hPa80.15%1032ppm2024-02-28 03:31:24
13003weather8080717.1°C955.85hPa80.29%1007ppm2024-02-28 02:29:50
13002weather8080717.2°C955.62hPa80.28%1040ppm2024-02-28 02:14:27
13001weather8080717.29°C955.15hPa80.53%1056ppm2024-02-28 01:43:43
13000weather8080717.5°C954.54hPa81.44%1178ppm2024-02-27 23:56:01
12999weather8080717.6°C954.43hPa81.42%1202ppm2024-02-27 23:40:37
12998weather8080717.9°C953.96hPa83.72%53ppm2024-02-27 22:23:43
12997weather8080718°C953.88hPa84.01%54ppm2024-02-27 22:08:19
12996weather8080718.29°C953.68hPa84.26%152ppm2024-02-27 21:52:56
12995weather8080718.5°C953.58hPa84.09%153ppm2024-02-27 21:37:33
12994weather8080718.7°C953.51hPa83.6%62ppm2024-02-27 21:22:10
12993weather8080718.9°C953.12hPa82%22ppm2024-02-27 20:36:00
12992weather8080718.79°C953.01hPa82.22%43ppm2024-02-27 20:20:36
12991weather8080718.5°C952.93hPa81.68%87ppm2024-02-27 20:05:14
12990weather8080718.7°C952.72hPa78.81%1611ppm2024-02-27 19:49:49
12989weather8080718.9°C952.5hPa78.79%1633ppm2024-02-27 19:34:26
12988weather8080719.2°C951.84hPa73.86%909ppm2024-02-27 18:17:28
12987weather8080719.29°C951.66hPa73.88%915ppm2024-02-27 18:02:05
12986weather8080719.5°C951.31hPa72.43%870ppm2024-02-27 17:31:20
12985weather8080719.5°C951.19hPa72.47%861ppm2024-02-27 17:15:57
12984weather8080719.7°C950.82hPa71.5%841ppm2024-02-27 16:45:12
12983weather8080719.7°C950.64hPa71.42%833ppm2024-02-27 16:14:30
12982weather8080719.7°C950.41hPa71.2%852ppm2024-02-27 15:43:45
12981weather8080719.7°C950.39hPa71.88%725ppm2024-02-27 15:13:00
12980weather8080719.6°C950.25hPa71.9%849ppm2024-02-27 14:57:37
12979weather8080719.6°C950.18hPa71.98%831ppm2024-02-27 14:26:52
12978weather8080719.2°C950.44hPa72.15%635ppm2024-02-27 12:08:23
12977weather8080719.29°C950.55hPa72.13%644ppm2024-02-27 11:53:00
12976weather8080719.6°C950.5hPa72.03%656ppm2024-02-27 11:22:17
12975weather8080716.6°C948.4hPa81.19%682ppm2024-02-27 06:29:55
12974weather8080716.7°C948.19hPa81.18%708ppm2024-02-27 06:14:31
12973weather8080716.9°C947.58hPa81.79%711ppm2024-02-27 04:57:35
12972weather8080717°C947.45hPa81.77%723ppm2024-02-27 04:42:13
12971weather8080717°C947.26hPa81.95%743ppm2024-02-27 04:11:29
12970weather8080717.1°C947.01hPa82.01%751ppm2024-02-27 03:40:44
12969weather8080717.5°C946.81hPa83.17%771ppm2024-02-27 02:08:25
12968weather8080717.6°C946.97hPa83.15%788ppm2024-02-27 01:53:02
12967weather8080717.9°C946.64hPa83.17%787ppm2024-02-27 01:06:54
12966weather8080718.2°C946.47hPa83.15%816ppm2024-02-27 00:51:31
12965weather8080718.4°C946.29hPa84.48%932ppm2024-02-27 00:20:46
12964weather8080718.29°C945.76hPa83.77%1134ppm2024-02-26 23:50:02
12963weather8080718.29°C945.47hPa83.65%1344ppm2024-02-26 23:19:17
12962weather8080718.5°C944.98hPa83.97%1482ppm2024-02-26 22:48:31
12961weather8080718.7°C944.98hPa84.41%1631ppm2024-02-26 22:17:45
12960weather8080719.2°C944.52hPa84.68%1703ppm2024-02-26 21:47:00
12959weather8080719.4°C944.53hPa83.81%1922ppm2024-02-26 21:16:16
12958weather8080719.5°C944.12hPa83.08%1653ppm2024-02-26 20:45:30
12957weather8080719.29°C943.62hPa82.6%1421ppm2024-02-26 20:14:45
12956weather8080719.4°C943.49hPa79.72%1250ppm2024-02-26 18:57:49
12955weather8080719.29°C943.12hPa79.72%1306ppm2024-02-26 18:42:26
12954weather8080719.29°C942.69hPa83.06%92ppm2024-02-26 18:11:41
12953weather8080719.4°C942.54hPa77.96%1221ppm2024-02-26 17:56:17
12952weather8080719.1°C942.33hPa77.96%1238ppm2024-02-26 17:40:54
12951weather8080718.9°C941.32hPa76.04%1148ppm2024-02-26 14:51:38
12950weather8080719°C941.23hPa76.02%1228ppm2024-02-26 14:36:17
12949weather8080719.29°C941.16hPa75.26%1104ppm2024-02-26 14:05:32
12948weather8080719.5°C940.93hPa75.23%1108ppm2024-02-26 13:34:48
12947weather8080719.7°C940.75hPa73.56%1028ppm2024-02-26 12:48:40
12946weather8080719.7°C941.04hPa73.57%1028ppm2024-02-26 12:33:17
12945weather8080719.29°C940.46hPa74.54%907ppm2024-02-26 08:42:25
12944weather8080718.79°C940.37hPa74.55%961ppm2024-02-26 08:27:02
12943weather8080717.4°C940.29hPa80.11%999ppm2024-02-26 07:56:17
12942weather8080716.4°C939.43hPa81.42%1010ppm2024-02-26 06:23:59
12941weather8080716.4°C939.43hPa81.4%1025ppm2024-02-26 06:08:36
12940weather8080716.5°C939.24hPa81.34%935ppm2024-02-26 05:22:28
12939weather8080716.6°C939.3hPa81.33%956ppm2024-02-26 05:07:04
12938weather8080716.7°C939.38hPa81.45%965ppm2024-02-26 04:36:19
12937weather8080716.79°C939.44hPa81.47%971ppm2024-02-26 04:05:35
12936weather8080716.9°C939.34hPa81.65%992ppm2024-02-26 03:34:50
12935weather8080717°C939.52hPa81.71%1018ppm2024-02-26 03:04:05
12934weather8080717.1°C939.69hPa81.81%1037ppm2024-02-26 02:33:20
12933weather8080717.2°C939.9hPa81.62%1046ppm2024-02-26 02:02:37
12932weather8080717.4°C939.95hPa81.59%1066ppm2024-02-26 01:31:52
12931weather8080717.5°C940.06hPa81.3%1073ppm2024-02-26 01:01:08
12930weather8080717.6°C940.2hPa80.36%1024ppm2024-02-26 00:30:23
12929weather8080718°C940.43hPa79.82%991ppm2024-02-25 23:59:39
12928weather8080718.2°C940.63hPa79.44%980ppm2024-02-25 23:28:53
12927weather8080718.5°C940.77hPa78.02%964ppm2024-02-25 22:58:09
12926weather8080718.6°C941hPa76.96%990ppm2024-02-25 22:27:24
12925weather8080718.9°C942.67hPa75.03%779ppm2024-02-25 20:08:55
12924weather8080719.1°C942.83hPa74.99%991ppm2024-02-25 19:53:32
12923weather8080719.4°C943.2hPa73.95%974ppm2024-02-25 19:22:49
12922weather8080718.9°C943.77hPa76.52%1140ppm2024-02-25 16:33:33
12921weather8080718.9°C943.85hPa76.52%1116ppm2024-02-25 16:18:10
12920weather8080719.1°C943.98hPa76.88%1178ppm2024-02-25 15:47:26
12919weather8080719.2°C944.14hPa76.46%1264ppm2024-02-25 15:16:39
12918weather8080718.79°C944.76hPa75.36%1117ppm2024-02-25 14:15:06
12917weather8080718.9°C944.77hPa75.35%1128ppm2024-02-25 13:59:43
12916weather8080718.9°C945.18hPa76.85%1374ppm2024-02-25 13:28:58
12915weather8080718.4°C945.64hPa83.97%1445ppm2024-02-25 12:58:14
12914weather8080719.1°C946.02hPa74.36%981ppm2024-02-25 12:27:29
12913weather8080718.9°C946.22hPa74.36%1020ppm2024-02-25 12:12:06
12912weather8080719.1°C946.54hPa74.65%1056ppm2024-02-25 11:41:21
12911weather8080719.29°C946.58hPa81.75%2238ppm2024-02-25 11:10:45
12910weather8080718.5°C947.54hPa75.55%634ppm2024-02-25 09:05:12
12909weather8080718.1°C947.64hPa75.55%787ppm2024-02-25 08:49:48
12908weather8080717.1°C947.84hPa77.25%797ppm2024-02-25 08:19:03
12907weather8080716.5°C947.88hPa78.19%793ppm2024-02-25 07:48:18
12906weather8080716.6°C948.07hPa78.17%806ppm2024-02-25 06:46:45
12905weather8080716.7°C948.17hPa78.16%781ppm2024-02-25 06:31:22
12904weather8080716.79°C948.23hPa78.2%777ppm2024-02-25 06:00:38
12903weather8080717.29°C948.02hPa79.14%818ppm2024-02-25 03:26:45
12902weather8080717.4°C948.21hPa79.12%927ppm2024-02-25 03:11:21
12901weather8080717.5°C948.02hPa79.23%994ppm2024-02-25 02:40:35
12900weather8080717.7°C948.23hPa79.45%1102ppm2024-02-25 02:09:51
12899weather8080717.9°C948.4hPa79.45%1208ppm2024-02-25 01:39:06
12898weather8080718.29°C948.24hPa79.22%1329ppm2024-02-25 01:08:21
12897weather8080718.4°C948.48hPa78.84%1276ppm2024-02-25 00:37:37
12896weather8080718.5°C948.46hPa78.95%1411ppm2024-02-25 00:06:52
12895weather8080718.7°C948.56hPa81.56%1969ppm2024-02-24 23:36:08
12894weather8080719°C948.53hPa80.04%1664ppm2024-02-24 23:05:23
12893weather8080719.29°C948.5hPa78.59%1430ppm2024-02-24 22:34:37
12892weather8080719.79°C947.95hPa75.76%893ppm2024-02-24 21:33:08
12891weather8080719.9°C947.95hPa75.78%1066ppm2024-02-24 21:17:46
12890weather8080719.7°C947.71hPa72.73%942ppm2024-02-24 20:47:00
12889weather8080725.1°C947.52hPa72.65%1009ppm2024-02-24 20:31:43
12888weather808078.5°C955.17hPa77.09%271ppm2023-04-25 04:08:41
12887weather808078.8°C955.23hPa77.04%265ppm2023-04-25 03:37:53
12886weather808079°C955.34hPa76.63%243ppm2023-04-25 03:04:48
12885weather808079.3°C955.49hPa74.76%263ppm2023-04-25 02:31:13
12884weather808079.3°C955.49hPa75.23%246ppm2023-04-25 01:57:37
12883weather808079.39°C955.81hPa74.92%258ppm2023-04-25 01:21:10
12882weather808079.1°C956.08hPa75.27%251ppm2023-04-25 00:45:09
12881weather808079.5°C956.26hPa72.87%262ppm2023-04-25 00:23:56
12880weather808079.6°C956.45hPa70.45%266ppm2023-04-24 23:53:15
12879weather808079.8°C956.57hPa67.21%275ppm2023-04-24 23:13:46
12878weather808079.89°C956.75hPa67.27%308ppm2023-04-24 22:43:02
12877weather8080710.2°C956.65hPa67.28%282ppm2023-04-24 22:27:39
12876weather8080710.5°C956.7hPa64.75%252ppm2023-04-24 21:41:31
12875weather8080710.5°C956.59hPa64.79%262ppm2023-04-24 21:26:07
12874weather8080711.4°C956.3hPa60.3%247ppm2023-04-24 20:55:24
12873weather8080711.9°C956.05hPa59.13%265ppm2023-04-24 20:24:40
12872weather8080711.9°C955.74hPa56.16%254ppm2023-04-24 19:53:56
12871weather8080712.6°C955.57hPa53.8%272ppm2023-04-24 19:23:12
12870weather8080714.1°C955.4hPa53.87%275ppm2023-04-24 19:07:49
12869weather8080714.1°C955.46hPa53.18%257ppm2023-04-24 18:37:04
12868weather8080714.1°C954.97hPa48.73%243ppm2023-04-24 18:06:20
12867weather8080714.3°C954.87hPa51.01%212ppm2023-04-24 17:35:36
12866weather8080714.8°C954.51hPa52.89%177ppm2023-04-24 17:04:52
12865weather8080714.7°C954.65hPa52.92%224ppm2023-04-24 16:49:29
12864weather8080714.8°C954.34hPa55.59%239ppm2023-04-24 16:18:45
12863weather8080714.6°C954.29hPa57.66%297ppm2023-04-24 15:48:00
12862weather8080712.7°C954.53hPa68.26%237ppm2023-04-24 15:17:14
12861weather8080715.6°C953.83hPa55.02%243ppm2023-04-24 14:46:30
12860weather8080712.4°C954.21hPa84.44%318ppm2023-04-24 13:14:13
12859weather8080711.3°C954.81hPa84.24%241ppm2023-04-24 12:58:50
12858weather8080714.2°C953.88hPa61.84%241ppm2023-04-24 12:28:08
12857weather8080713.4°C953.99hPa64.36%214ppm2023-04-24 11:57:24
12856weather8080713.2°C954.07hPa64.34%230ppm2023-04-24 11:42:01
12855weather8080711.5°C954.14hPa72.4%246ppm2023-04-24 11:11:14
12854weather8080711.7°C953.82hPa81.11%255ppm2023-04-24 10:40:30
12853weather8080713.9°C953.31hPa67.75%286ppm2023-04-24 10:09:48
12852weather8080710.7°C952.56hPa90.02%311ppm2023-04-24 07:20:30
12851weather8080710.9°C952.47hPa89.89%332ppm2023-04-24 07:05:07
12850weather8080710.2°C952.32hPa90.88%184ppm2023-04-24 06:34:23
12849weather8080710.4°C952.21hPa90.98%261ppm2023-04-24 06:19:01
12848weather8080710.3°C952.47hPa90.37%141ppm2023-04-24 05:48:17
12847weather8080710.3°C952.48hPa90.4%255ppm2023-04-24 05:32:53
12846weather8080710.5°C952.38hPa87.6%256ppm2023-04-24 05:02:09
12845weather8080710.7°C952.33hPa87.52%254ppm2023-04-24 04:31:25
12844weather8080710.7°C952.29hPa88.47%256ppm2023-04-24 04:00:41
12843weather8080711.4°C952.69hPa91.44%170ppm2023-04-24 02:28:24
12842weather8080711.4°C952.64hPa91.4%245ppm2023-04-24 02:13:02
12841weather8080712.4°C953.3hPa91.96%254ppm2023-04-24 00:25:24
12840weather8080712.4°C953.28hPa91.86%251ppm2023-04-24 00:10:02
12839weather8080712.1°C953.36hPa92.46%248ppm2023-04-23 23:39:17
12838weather8080712.3°C953.28hPa92.31%259ppm2023-04-23 23:08:33
12837weather8080712.3°C953.1hPa89.49%253ppm2023-04-23 22:37:49
12836weather8080712.5°C953.45hPa87.43%254ppm2023-04-23 22:07:04
12835weather8080713.1°C953.19hPa85.7%263ppm2023-04-23 21:36:21
12834weather8080716.1°C951.32hPa71.34%246ppm2023-04-23 20:34:53
12833weather8080716.1°C951.41hPa71.35%247ppm2023-04-23 20:19:29
12832weather8080716.9°C951.46hPa69%250ppm2023-04-23 19:48:44
12831weather8080716.79°C951.5hPa70.63%251ppm2023-04-23 19:17:59
12830weather8080717.4°C951.78hPa68.49%259ppm2023-04-23 18:47:13
12829weather8080719.5°C952.1hPa62.07%269ppm2023-04-23 17:45:43
12828weather8080718.5°C952.33hPa62.06%238ppm2023-04-23 17:30:19
12827weather8080719°C952.34hPa61.36%231ppm2023-04-23 16:59:33
12826weather8080719°C952.83hPa58.62%242ppm2023-04-23 16:28:50
12825weather8080719.2°C952.89hPa59.23%226ppm2023-04-23 15:58:05
12824weather8080719.2°C953.59hPa58.4%249ppm2023-04-23 15:27:20
12823weather8080718°C954.54hPa56.16%238ppm2023-04-23 14:10:24
12822weather8080718.9°C954.83hPa56.43%204ppm2023-04-23 13:55:03
12821weather8080716.9°C955.88hPa69.63%68ppm2023-04-23 12:38:03
12820weather8080716°C955.89hPa69.78%248ppm2023-04-23 12:22:39
12819weather8080716.5°C956.12hPa64.91%215ppm2023-04-23 11:51:53
12818weather8080717.1°C956.29hPa68.04%377ppm2023-04-23 11:21:14
12817weather8080717.1°C956.43hPa68.62%223ppm2023-04-23 11:20:50
12816weather8080722°C954.92hPa48.46%1014ppm2023-04-22 20:14:06
12815weather8080714.5°C964.74hPa76.06%458ppm2022-10-25 20:14:03
12814weather8080714.8°C964.87hPa74.35%449ppm2022-10-25 19:43:17
12813weather8080714.9°C964.89hPa72.58%387ppm2022-10-25 19:12:32
12812weather8080715.3°C964.74hPa72.55%449ppm2022-10-25 18:57:09
12811weather8080715.9°C964.69hPa69.29%443ppm2022-10-25 18:26:24
12810weather8080717.1°C964.59hPa64.78%432ppm2022-10-25 17:55:40
12809weather8080717.2°C964.48hPa64.18%465ppm2022-10-25 17:25:00
12808weather8080713.1°C962.29hPa89.68%427ppm2022-10-01 22:53:47
12807weather8080713.2°C961.25hPa84.46%412ppm2022-10-01 21:37:00
12806weather8080713.3°C961.07hPa84.42%422ppm2022-10-01 21:21:38
12805weather8080713°C960.6hPa85.24%421ppm2022-10-01 20:35:33
12804weather8080712.9°C960.45hPa85.37%449ppm2022-10-01 20:04:48
12803weather8080712.9°C959.73hPa85.59%427ppm2022-10-01 19:34:05
12802weather8080712.8°C959.61hPa86.54%440ppm2022-10-01 19:03:21
12801weather8080712.6°C959.14hPa87.4%424ppm2022-10-01 18:32:36
12800weather8080712.6°C958.93hPa86.3%424ppm2022-10-01 18:01:53
12799weather8080712.8°C958.74hPa90.58%354ppm2022-10-01 13:24:59
12798weather8080712.6°C958.76hPa90.39%504ppm2022-10-01 13:09:38
12797weather8080713.4°C958.3hPa76.25%425ppm2022-09-30 20:31:06
12796weather8080713.5°C958.18hPa73.76%424ppm2022-09-30 20:00:21
12795weather8080713.6°C958.01hPa72.35%414ppm2022-09-30 19:29:37
12794weather8080713.7°C957.75hPa72.63%350ppm2022-09-30 18:43:29
12793weather8080713.8°C957.67hPa72.57%409ppm2022-09-30 18:28:07
12792weather8080714.2°C957.07hPa66.25%430ppm2022-09-30 17:42:00
12791weather8080714.6°C957.03hPa66.26%413ppm2022-09-30 17:26:36
12790weather8080714.7°C956.97hPa67.52%417ppm2022-09-30 16:55:51
12789weather8080714.8°C956.58hPa67.12%505ppm2022-09-30 16:25:07
12788weather8080715.6°C956.64hPa66.78%295ppm2022-09-30 15:54:22
12787weather8080715°C956.6hPa66.82%413ppm2022-09-30 15:38:59
12786weather8080715.2°C956.79hPa63.99%412ppm2022-09-30 15:08:16
12785weather8080715.5°C956.7hPa65.98%422ppm2022-09-30 14:37:32
12784weather8080714.5°C956.81hPa69.74%442ppm2022-09-30 14:06:47
12783weather8080714.6°C956.88hPa65.96%393ppm2022-09-30 13:36:03
12782weather8080721.2°C956.3hPa53.5%228ppm2022-09-30 13:05:23
12781weather8080732.09°C953.54hPa31.99%40000ppm2022-09-30 12:34:44
12780weather8080731.2°C955.72hPa43%885ppm2022-09-30 12:19:23
12779weather8080713.1°C966.78hPa64.07%431ppm2022-09-20 18:52:29
12778weather8080713.8°C966.43hPa57.48%416ppm2022-09-20 18:21:45
12777weather8080714.3°C966.2hPa52.56%423ppm2022-09-20 17:51:00
12776weather8080715°C965.9hPa52.4%427ppm2022-09-20 17:20:17
12775weather8080714.7°C965.91hPa54.47%391ppm2022-09-20 16:49:33
12774weather8080715°C965.93hPa54.59%424ppm2022-09-20 16:34:10
12773weather8080715°C965.9hPa59.03%454ppm2022-09-20 16:03:26
12772weather8080714.4°C965.98hPa59.03%429ppm2022-09-20 15:48:01
12771weather8080715.5°C965.86hPa54.69%411ppm2022-09-20 15:17:18
12770weather8080716.2°C965.82hPa54.59%435ppm2022-09-20 15:01:56
12769weather8080716.29°C965.8hPa55.49%374ppm2022-09-20 14:31:11
12768weather8080716.4°C965.98hPa53.95%423ppm2022-09-20 14:00:28
12767weather8080719.5°C965.9hPa50.01%405ppm2022-09-20 13:29:47
12766weather8080713.1°C966.22hPa73.06%345ppm2022-09-20 11:42:04
12765weather8080714.3°C966.33hPa72.5%418ppm2022-09-20 11:26:42
12764weather8080712.2°C966.29hPa80.35%396ppm2022-09-20 10:55:55
12763weather8080712.1°C966.31hPa80.69%412ppm2022-09-20 10:25:10
12762weather8080710.1°C966.07hPa91.48%994ppm2022-09-20 09:08:14
12761weather8080710.4°C965.91hPa91.59%1187ppm2022-09-20 08:52:54
12760weather808078°C960.59hPa89.64%416ppm2022-09-19 05:34:05
12759weather808078.1°C960.37hPa90.51%385ppm2022-09-19 05:03:22
12758weather808078.2°C960.13hPa89.3%396ppm2022-09-19 04:32:38
12757weather808079.6°C959.29hPa89.8%402ppm2022-09-19 03:00:21
12756weather808079.8°C959.28hPa89.57%394ppm2022-09-19 02:44:58
12755weather8080710.5°C959.04hPa80.02%386ppm2022-09-19 00:41:56
12754weather8080710.6°C959.04hPa80.01%385ppm2022-09-19 00:26:32
12753weather8080711.6°C959hPa73.19%379ppm2022-09-18 23:55:49
12752weather8080712°C959.03hPa67.75%391ppm2022-09-18 23:25:04
12751weather8080711.9°C959.17hPa68.52%400ppm2022-09-18 22:54:20
12750weather8080711.8°C959.37hPa68.67%396ppm2022-09-18 22:23:35
12749weather8080712.9°C959.74hPa76.22%454ppm2022-09-18 19:34:21
12748weather8080712.4°C959.89hPa76.18%481ppm2022-09-18 19:19:02
12747weather8080714.6°C960.42hPa74.71%555ppm2022-09-18 16:00:03
12746weather8080718.1°C964.18hPa77.22%467ppm2022-09-06 02:33:49
12745weather8080718.2°C964.15hPa75.97%429ppm2022-09-06 02:03:05
12744weather8080718.79°C964.3hPa75.85%452ppm2022-09-06 01:47:42
12743weather8080718.7°C964.49hPa74.54%444ppm2022-09-06 01:16:57
12742weather8080719.29°C964.48hPa73.29%447ppm2022-09-06 00:46:12
12741weather8080719.2°C964.67hPa73.43%471ppm2022-09-06 00:15:27
12740weather8080719.6°C964.87hPa71.68%463ppm2022-09-05 23:44:44
12739weather8080723.9°C965.16hPa53.06%422ppm2022-09-05 19:23:11
12738weather8080724.2°C965.13hPa53.05%446ppm2022-09-05 19:07:48
12737weather8080725.1°C965.19hPa52.33%490ppm2022-09-05 18:37:06
12736weather8080726.5°C965.35hPa45.64%415ppm2022-09-05 16:49:27
12735weather8080726°C965.55hPa45.67%423ppm2022-09-05 16:34:04
12734weather8080726.1°C965.76hPa46.98%415ppm2022-09-05 16:03:20
12733weather8080726.4°C965.9hPa48.18%436ppm2022-09-05 15:32:36
12732weather8080726.1°C966.27hPa50.1%416ppm2022-09-05 15:01:50
12731weather8080726.2°C966.4hPa50.33%455ppm2022-09-05 14:46:28
12730weather8080728.2°C967.06hPa48.75%427ppm2022-09-05 12:27:59
12729weather8080727.8°C967.06hPa48.78%539ppm2022-09-05 12:12:40
12728weather8080718.79°C963.2hPa91.43%440ppm2022-08-20 21:59:40
12727weather8080718.9°C963.26hPa91.34%417ppm2022-08-20 21:44:16
12726weather8080719°C963.34hPa90.08%419ppm2022-08-20 21:13:31
12725weather8080718.9°C963.15hPa91.58%439ppm2022-08-20 20:42:46
12724weather8080718.9°C963.05hPa90.86%428ppm2022-08-20 20:12:01
12723weather8080718.79°C963.04hPa88.52%432ppm2022-08-20 19:41:17
12722weather8080718.6°C963.03hPa90.15%371ppm2022-08-20 19:10:32
12721weather8080718.6°C962.94hPa90.12%405ppm2022-08-20 18:55:09
12720weather8080718.5°C962.76hPa90.27%419ppm2022-08-20 18:24:26
12719weather8080717.9°C962.82hPa93.75%402ppm2022-08-20 17:53:39
12718weather8080717.79°C963.25hPa91.88%395ppm2022-08-20 17:22:55
12717weather8080718.6°C963.57hPa92.21%415ppm2022-08-20 17:07:32
12716weather8080724.3°C961.46hPa70.6%289ppm2022-08-20 16:06:05
12715weather8080723.9°C961.58hPa70.77%404ppm2022-08-20 15:50:42
12714weather8080723.2°C962hPa73.67%397ppm2022-08-20 15:19:57
12713weather8080723.1°C961.67hPa67.88%439ppm2022-08-20 14:49:13
12712weather8080721°C962.32hPa81.85%343ppm2022-08-20 13:16:50
12711weather8080720.9°C962.48hPa81.97%406ppm2022-08-20 13:01:27
12710weather8080720.2°C962.68hPa83.81%414ppm2022-08-20 12:30:43
12709weather8080719.79°C962.64hPa86.32%420ppm2022-08-20 11:59:58
12708weather8080719.5°C962.85hPa85.1%424ppm2022-08-20 11:29:14
12707weather8080719.29°C962.76hPa84.81%438ppm2022-08-20 10:58:29
12706weather8080719.5°C962.48hPa85.16%448ppm2022-08-20 10:27:46
12705weather8080719.6°C962.29hPa85.28%421ppm2022-08-20 10:12:22
12704weather8080719.1°C962.13hPa91.5%569ppm2022-08-20 09:10:50
12703weather8080719.2°C956.52hPa85.44%474ppm2022-08-19 03:22:55
12702weather8080719.5°C957.16hPa85.4%442ppm2022-08-19 02:21:23
12701weather8080719.4°C957.33hPa85.49%398ppm2022-08-19 02:06:00
12700weather8080719.79°C956.89hPa85.76%409ppm2022-08-18 23:47:33
12699weather8080719.79°C957.35hPa85.74%417ppm2022-08-18 23:32:11
12698weather8080720.8°C956.05hPa78.42%364ppm2022-08-18 20:42:57
12697weather8080721.2°C955.94hPa78.37%407ppm2022-08-18 20:27:34
12696weather8080722.3°C955.52hPa83.29%501ppm2022-08-18 19:56:54
12695weather8080721.2°C958.19hPa77.57%447ppm2022-08-18 01:09:41
12694weather8080728.9°C955.9hPa36.71%434ppm2022-08-17 19:46:42
12693weather8080729.2°C955.84hPa36.68%432ppm2022-08-17 19:31:20
12692weather8080729.7°C956.08hPa35.16%444ppm2022-08-17 19:00:36
12691weather8080730.4°C956.28hPa35.03%439ppm2022-08-17 18:29:54
12690weather8080731.7°C956.16hPa33.15%438ppm2022-08-17 17:59:09
12689weather8080732.5°C956.23hPa29.43%304ppm2022-08-17 16:26:53
12688weather8080732.59°C956.46hPa29.6%431ppm2022-08-17 16:11:30
12687weather8080731.9°C956.65hPa31.44%436ppm2022-08-17 15:40:45
12686weather8080733°C956.7hPa30.52%443ppm2022-08-17 15:10:27
12685weather8080733.2°C956.53hPa30.78%502ppm2022-08-17 14:51:43
12684weather8080732°C957.02hPa30.1%431ppm2022-08-17 14:21:01
12683weather8080733.5°C956.65hPa30.49%437ppm2022-08-17 13:50:16
12682weather8080734.59°C956.66hPa32.44%427ppm2022-08-17 13:04:10
12681weather8080734.2°C956.66hPa32.43%521ppm2022-08-17 12:48:47
12680weather8080732.2°C957.14hPa30.58%443ppm2022-08-17 12:18:02
12679weather8080732.7°C956.94hPa30.17%446ppm2022-08-17 11:47:19
12678weather8080737.3°C957.28hPa24.1%344ppm2022-08-17 11:16:40
12677weather8080728.4°C956.36hPa46.03%456ppm2022-08-17 09:13:31
12676weather8080724°C957.03hPa44.9%402ppm2022-08-16 21:33:02
12675weather8080724.3°C956.83hPa44.85%425ppm2022-08-16 21:17:40
12674weather8080725.9°C956.57hPa39.25%391ppm2022-08-16 20:16:08
12673weather8080726.5°C956.42hPa39.22%403ppm2022-08-16 20:00:45
12672weather8080726.9°C956.15hPa37.85%390ppm2022-08-16 19:30:00
12671weather8080727.5°C955.94hPa36.8%401ppm2022-08-16 18:59:15
12670weather8080727.9°C956.11hPa34.29%406ppm2022-08-16 18:28:30
12669weather8080728.2°C956.07hPa50.69%617ppm2022-08-16 17:57:49
12668weather8080713.3°C968.49hPa79.05%281ppm2021-12-31 03:11:24
12667weather8080713.3°C968.6hPa79.05%401ppm2021-12-31 02:56:00
12666weather8080713.6°C968.6hPa78.77%406ppm2021-12-31 02:25:15
12665weather8080713.5°C968.36hPa79.35%409ppm2021-12-31 01:54:30
12664weather8080713.5°C968.32hPa79.75%401ppm2021-12-31 01:23:47
12663weather8080713.7°C968.46hPa79.05%403ppm2021-12-31 00:53:02
12662weather8080713.6°C968.36hPa79.84%402ppm2021-12-31 00:22:17
12661weather8080713.6°C968.27hPa79.5%420ppm2021-12-30 23:51:32
12660weather8080713.7°C968.22hPa78.19%423ppm2021-12-30 23:20:47
12659weather8080713.8°C967.66hPa79.08%375ppm2021-12-30 22:03:52
12658weather8080713.9°C967.52hPa79.1%416ppm2021-12-30 21:48:28
12657weather8080713.6°C967.28hPa80.56%409ppm2021-12-30 21:17:43
12656weather8080713.8°C966.78hPa81.99%440ppm2021-12-30 20:16:15
12655weather8080713.7°C966.79hPa82.07%413ppm2021-12-30 20:00:52
12654weather8080713.9°C966.66hPa81.2%417ppm2021-12-30 19:30:08
12653weather8080714°C965.81hPa81.79%444ppm2021-12-30 16:25:26
12652weather8080714°C965.74hPa81.71%402ppm2021-12-30 16:10:04
12651weather8080714.7°C965.13hPa78.26%327ppm2021-12-30 14:07:00
12650weather8080714.8°C964.86hPa78.24%386ppm2021-12-30 13:51:36
12649weather8080714.5°C964.88hPa80.27%388ppm2021-12-30 13:20:51
12648weather8080715.9°C964.75hPa95.44%889ppm2021-12-30 12:50:06
12647weather8080711.8°C960.14hPa88.45%388ppm2021-12-30 03:08:47
12646weather8080711.8°C959.92hPa88.47%401ppm2021-12-30 02:53:24
12645weather8080711.6°C959.6hPa87.91%403ppm2021-12-30 02:22:37
12644weather8080711.6°C958.92hPa88.17%399ppm2021-12-30 01:51:54
12643weather808079.39°C956.87hPa82.58%390ppm2021-12-29 22:16:24
12642weather808079.5°C956.69hPa82.62%414ppm2021-12-29 22:01:00
12641weather808079.3°C956.86hPa82.56%400ppm2021-12-29 21:30:16
12640weather808078.89°C956.21hPa80.12%396ppm2021-12-29 20:59:30
12639weather808079.3°C956.61hPa80.14%414ppm2021-12-29 20:44:06
12638weather808079.3°C956.57hPa76.23%362ppm2021-12-29 20:13:20
12637weather808079.5°C956.55hPa76.21%400ppm2021-12-29 19:57:57
12636weather808079.5°C956.72hPa73.31%404ppm2021-12-29 19:27:12
12635weather808079.89°C956.79hPa67.86%405ppm2021-12-29 18:56:27
12634weather8080710°C956.65hPa67.71%401ppm2021-12-29 18:25:42
12633weather808079.8°C956.92hPa66.94%407ppm2021-12-29 17:54:58
12632weather808079.6°C956.9hPa66.98%392ppm2021-12-29 17:39:36
12631weather808079.5°C956.9hPa66.47%387ppm2021-12-29 17:08:51
12630weather8080710°C956.16hPa64.96%418ppm2021-12-29 15:21:07
12629weather8080710°C956.04hPa64.96%389ppm2021-12-29 15:05:43
12628weather8080710.3°C955.89hPa65.75%390ppm2021-12-29 14:34:58
12627weather8080710.7°C955.48hPa65.18%385ppm2021-12-29 14:04:13
12626weather8080714.6°C955.28hPa86.9%838ppm2021-12-29 13:33:27
12625weather808077.1°C947.62hPa85.54%0ppm2021-12-28 09:44:02
12624weather808076.8°C947.33hPa83.11%0ppm2021-12-28 09:28:38
12623weather808076.8°C947.31hPa78.25%419ppm2021-12-28 09:13:15
12622weather808076.9°C946.77hPa78.24%410ppm2021-12-28 08:57:52
12621weather808076.6°C946.7hPa0%0ppm2021-12-28 08:42:30
12620weather808076.5°C946.67hPa76.55%417ppm2021-12-28 08:27:08
12619weather808076.5°C946.75hPa0%0ppm2021-12-28 08:11:44
12618weather808076.4°C947.02hPa77.69%289ppm2021-12-28 07:56:22
12617weather808076.3°C946.95hPa77.75%405ppm2021-12-28 07:41:00
12616weather808076.1°C946.81hPa0%0ppm2021-12-28 07:25:37
12615weather808076°C946.64hPa79.83%400ppm2021-12-28 07:10:16
12614weather808075.9°C946.61hPa0%0ppm2021-12-28 06:54:53
12613weather808075.8°C946.68hPa81.1%410ppm2021-12-28 06:39:31
12612weather808075.9°C946.91hPa0%0ppm2021-12-28 06:24:08
12611weather808076.2°C947.05hPa81.75%412ppm2021-12-28 06:08:47
12610weather808075.9°C947.16hPa0%0ppm2021-12-28 05:53:23
12609weather808076°C947.31hPa82.38%409ppm2021-12-28 05:38:01
12608weather808075.9°C947.56hPa0%0ppm2021-12-28 05:22:37
12607weather808076.2°C947.7hPa89.68%0ppm2021-12-28 05:07:17
12606weather808076.2°C947.72hPa90.66%0ppm2021-12-28 04:51:54
12605weather808076.2°C947.91hPa90.61%0ppm2021-12-28 04:36:30
12604weather808076.3°C947.89hPa91.04%0ppm2021-12-28 04:21:06
12603weather808076.3°C948.26hPa91.45%0ppm2021-12-28 04:05:42
12602weather808076.6°C948.45hPa90.67%0ppm2021-12-28 03:50:19
12601weather808076.6°C948.59hPa84.01%259ppm2021-12-28 03:34:56
12600weather808076.6°C948.62hPa84.06%404ppm2021-12-28 03:19:33
12599weather808076.8°C948.88hPa0%0ppm2021-12-28 03:04:09
12598weather808077.1°C949.07hPa83.37%400ppm2021-12-28 02:48:47
12597weather808077.2°C949.21hPa0%0ppm2021-12-28 02:33:23
12596weather808077.4°C949.13hPa82.4%406ppm2021-12-28 02:18:01
12595weather808077.3°C949.23hPa0%0ppm2021-12-28 02:02:37
12594weather808077.4°C949.08hPa89.57%0ppm2021-12-28 01:47:14
12593weather808077.4°C949.17hPa90.06%0ppm2021-12-28 01:31:52
12592weather808077.2°C949.24hPa84.77%424ppm2021-12-28 01:16:28
12591weather808077.4°C949.17hPa84.77%403ppm2021-12-28 01:01:05
12590weather808077.2°C949.45hPa0%0ppm2021-12-28 00:45:42
12589weather808077.2°C949.64hPa85.62%413ppm2021-12-28 00:30:21
12588weather808076.9°C949.83hPa0%0ppm2021-12-28 00:14:58
12587weather808076.7°C949.97hPa89.91%0ppm2021-12-27 23:59:35
12586weather808076.4°C950.04hPa88.57%0ppm2021-12-27 23:44:11
12585weather808076.5°C950.42hPa87.31%0ppm2021-12-27 23:28:47
12584weather808076.3°C950.3hPa80.32%424ppm2021-12-27 23:13:24
12583weather808076.4°C950.17hPa80.31%450ppm2021-12-27 22:58:00
12582weather808076.4°C950.11hPa0%0ppm2021-12-27 22:42:35
12581weather808076.5°C950hPa79.84%448ppm2021-12-27 22:27:15
12580weather808075.9°C949.9hPa0%0ppm2021-12-27 22:11:51
12579weather808075.9°C949.91hPa86.81%0ppm2021-12-27 21:56:30
12578weather808076.1°C949.92hPa85.7%0ppm2021-12-27 21:41:07
12577weather808075.6°C949.89hPa77.85%407ppm2021-12-27 21:25:43
12576weather808076.3°C950.02hPa77.83%421ppm2021-12-27 21:10:21
12575weather808076.9°C949.93hPa0%0ppm2021-12-27 20:55:00
12574weather8080723°C949.45hPa57.59%2468ppm2021-12-27 20:39:55
12573weather8080722.5°C949.42hPa58.97%2235ppm2021-12-27 20:36:52
12572weather8080720.8°C967.23hPa28.22%764ppm2021-12-22 17:07:55
12571weather8080723.9°C967.2hPa46.54%2057ppm2021-12-22 17:03:36
12570weather8080724.6°C967.15hPa46.39%2061ppm2021-12-22 17:01:42
12569weather8080725.1°C967.27hPa46.87%2255ppm2021-12-22 17:00:20
12568weather8080725°C967.15hPa45.82%2132ppm2021-12-22 16:58:18
12567weather8080724.9°C967.17hPa0%0ppm2021-12-22 16:57:01
12566weather8080724.9°C967.19hPa46.17%559ppm2021-12-22 16:55:08
12565weather8080724.8°C967.12hPa46.2%2124ppm2021-12-22 16:54:33
12564weather8080725°C967.21hPa46.03%1724ppm2021-12-22 16:53:32
12563weather8080724.8°C967.18hPa46.85%2221ppm2021-12-22 16:49:33
12562weather8080724.3°C967.3hPa45.92%2093ppm2021-12-22 16:31:24
12561weather8080724.4°C967.24hPa0%0ppm2021-12-22 16:29:38
12560weather8080724.5°C966.99hPa46.98%2128ppm2021-12-22 16:14:21
12559weather8080724.3°C967.2hPa48.09%2219ppm2021-12-22 16:06:29
12558weather8080724.4°C967.05hPa47.14%2045ppm2021-12-22 16:04:23
12557weather8080724.1°C967.11hPa18.76%0ppm2021-12-22 15:58:33
12556weather8080724.1°C967.12hPa20.46%0ppm2021-12-22 15:57:05
12555weather8080724.1°C967.1hPa0.06%0ppm2021-12-22 15:54:26
12554weather8080724.3°C967.16hPa1%0ppm2021-12-22 15:53:19
12553weather8080724.4°C967.17hPa1.73%0ppm2021-12-22 15:50:27
12552weather8080724.4°C967.22hPa0.78%0ppm2021-12-22 15:48:38
12551weather8080724.6°C967.25hPa14418.24%125ppm2021-12-22 15:46:13
12550weather8080724.3°C967.31hPa0%0ppm2021-12-22 15:41:38
12549weather8080724.5°C967.26hPa0%0ppm2021-12-22 15:40:11
12548weather8080724.6°C967.24hPa0%0ppm2021-12-22 15:38:14
12547weather8080724.6°C967.33hPa0%0ppm2021-12-22 15:37:12
12546weather8080724.6°C967.3hPa0%0ppm2021-12-22 15:35:20
12545weather8080724.6°C967.19hPa0%0ppm2021-12-22 15:28:50
12544weather8080724.8°C967.15hPa0%0ppm2021-12-22 15:25:10
12543weather8080725°C967.18hPa0%0ppm2021-12-22 15:19:16
12542weather808078.3°C962.51hPa%ppm2021-11-14 14:14:43
12541weather808078.39°C962.39hPa%ppm2021-11-14 13:59:42
12540weather808078.6°C962.38hPa%ppm2021-11-14 13:44:41
12539weather808078.3°C962.38hPa%ppm2021-11-14 13:29:39
12538weather808078.2°C962.29hPa%ppm2021-11-14 13:14:36
12537weather808078°C962.4hPa%ppm2021-11-14 12:59:35
12536weather808078.1°C962.38hPa%ppm2021-11-14 12:44:35
12535weather808078.2°C962.17hPa%ppm2021-11-14 12:29:34
12534weather808078.6°C962.09hPa%ppm2021-11-14 12:14:31
12533weather808078.2°C962.13hPa%ppm2021-11-14 11:59:29
12532weather808078.5°C962.16hPa%ppm2021-11-14 11:44:29
12531weather808078.6°C962.27hPa%ppm2021-11-14 11:29:27
12530weather808078.6°C962.23hPa%ppm2021-11-14 11:14:26
12529weather808079.3°C962.23hPa%ppm2021-11-14 10:59:24
12528weather808079.2°C962.17hPa%ppm2021-11-14 10:44:22
12527weather808078.2°C962.4hPa%ppm2021-11-14 10:29:21
12526weather808079.3°C962.11hPa%ppm2021-11-14 10:14:20
12525weather808079.2°C961.92hPa%ppm2021-11-14 09:59:18
12524weather808079°C961.94hPa%ppm2021-11-14 09:44:16
12523weather808078.7°C962.02hPa%ppm2021-11-14 09:29:15
12522weather808078.8°C962.08hPa%ppm2021-11-14 09:14:13
12521weather808078.5°C962.17hPa%ppm2021-11-14 08:59:12
12520weather808078.7°C962.14hPa%ppm2021-11-14 08:44:10
12519weather808078.7°C962.36hPa%ppm2021-11-14 08:29:08
12518weather808078.7°C962.06hPa%ppm2021-11-14 08:14:07
12517weather808078.7°C961.94hPa%ppm2021-11-14 07:59:06
12516weather808078.2°C961.87hPa%ppm2021-11-14 07:44:03
12515weather808078.39°C961.68hPa%ppm2021-11-14 07:29:03
12514weather808078.89°C961.44hPa%ppm2021-11-14 07:14:02
12513weather808078.7°C961.21hPa%ppm2021-11-14 06:59:00
12512weather808078.89°C961.1hPa%ppm2021-11-14 06:43:58
12511weather808079°C961.12hPa%ppm2021-11-14 06:28:57
12510weather808078.8°C960.9hPa%ppm2021-11-14 06:13:56
12509weather808079°C960.82hPa%ppm2021-11-14 05:58:56
12508weather808079°C960.79hPa%ppm2021-11-14 05:43:53
12507weather808079°C960.79hPa%ppm2021-11-14 05:28:52
12506weather808079.1°C960.68hPa%ppm2021-11-14 05:13:50
12505weather808078.89°C960.67hPa%ppm2021-11-14 04:58:47
12504weather808078.89°C960.63hPa%ppm2021-11-14 04:43:45
12503weather808078.89°C960.68hPa%ppm2021-11-14 04:28:43
12502weather808079°C960.7hPa%ppm2021-11-14 04:13:41
12501weather808078.7°C960.65hPa%ppm2021-11-14 03:58:39
12500weather808078.89°C960.5hPa%ppm2021-11-14 03:43:37
12499weather808079.1°C960.62hPa%ppm2021-11-14 03:28:36
12498weather808079.1°C960.63hPa%ppm2021-11-14 03:13:35
12497weather808079.1°C960.66hPa%ppm2021-11-14 02:58:33
12496weather808079°C960.74hPa%ppm2021-11-14 02:43:31
12495weather808079.1°C960.72hPa%ppm2021-11-14 02:28:30
12494weather808079.1°C960.73hPa%ppm2021-11-14 02:13:28
12493weather808078.89°C960.63hPa%ppm2021-11-14 01:58:29
12492weather808079°C960.43hPa%ppm2021-11-14 01:43:26
12491weather808079°C960.43hPa%ppm2021-11-14 01:28:24
12490weather808078.89°C960.42hPa%ppm2021-11-14 01:13:22
12489weather808079.1°C960.58hPa%ppm2021-11-14 00:58:21
12488weather808079.1°C960.7hPa%ppm2021-11-14 00:43:20
12487weather808078.89°C960.57hPa%ppm2021-11-14 00:28:20
12486weather808079.1°C960.75hPa%ppm2021-11-14 00:13:15
12485weather808078.89°C960.63hPa%ppm2021-11-13 23:58:33
12484weather808078.89°C960.7hPa%ppm2021-11-13 23:57:54
12483weather808079°C960.65hPa%ppm2021-11-13 23:42:51
12482weather808079°C960.66hPa%ppm2021-11-13 23:27:50
12481weather808078.8°C960.71hPa%ppm2021-11-13 23:12:49
12480weather808078.8°C960.72hPa%ppm2021-11-13 22:57:47
12479weather808078.89°C960.67hPa%ppm2021-11-13 22:42:47
12478weather808078.8°C960.71hPa%ppm2021-11-13 22:27:45
12477weather808078.8°C960.78hPa%ppm2021-11-13 22:12:44
12476weather808078.6°C960.78hPa%ppm2021-11-13 21:57:43
12475weather808078.6°C960.79hPa%ppm2021-11-13 21:42:41
12474weather808078.6°C960.65hPa%ppm2021-11-13 21:27:39
12473weather808078.7°C960.66hPa%ppm2021-11-13 21:12:39
12472weather808078.7°C960.63hPa%ppm2021-11-13 20:57:36
12471weather808078.8°C960.74hPa%ppm2021-11-13 20:42:35
12470weather808078.6°C960.71hPa%ppm2021-11-13 20:27:34
12469weather808078.7°C960.73hPa%ppm2021-11-13 20:12:34
12468weather808078.7°C960.76hPa%ppm2021-11-13 19:57:33
12467weather808078.5°C960.66hPa%ppm2021-11-13 19:42:31
12466weather808078.6°C960.7hPa%ppm2021-11-13 19:27:29
12465weather808078.6°C960.81hPa%ppm2021-11-13 19:12:27
12464weather808078.39°C960.81hPa%ppm2021-11-13 18:57:27
12463weather808078.7°C960.64hPa%ppm2021-11-13 18:42:26
12462weather808078.6°C960.63hPa%ppm2021-11-13 18:27:23
12461weather808078.7°C960.72hPa%ppm2021-11-13 18:12:22
12460weather808078.7°C960.66hPa%ppm2021-11-13 17:57:21
12459weather808078.7°C960.69hPa%ppm2021-11-13 17:42:18
12458weather808078.6°C960.79hPa%ppm2021-11-13 17:27:16
12457weather808078.5°C960.72hPa%ppm2021-11-13 17:12:15
12456weather808078.39°C960.74hPa%ppm2021-11-13 16:57:15
12455weather808078.39°C960.74hPa%ppm2021-11-13 16:42:12
12454weather808078.39°C960.94hPa%ppm2021-11-13 16:27:11
12453weather808078.39°C961hPa%ppm2021-11-13 16:12:10
12452weather808078.3°C961.06hPa%ppm2021-11-13 15:57:07
12451weather808078.39°C961.04hPa%ppm2021-11-13 15:42:07
12450weather808078.5°C960.92hPa%ppm2021-11-13 15:27:05
12449weather808078.5°C960.85hPa%ppm2021-11-13 15:12:04
12448weather808078.6°C961.01hPa%ppm2021-11-13 14:57:03
12447weather808078.3°C961.11hPa%ppm2021-11-13 14:42:02
12446weather808078.5°C961.1hPa%ppm2021-11-13 14:27:00
12445weather808078.6°C960.99hPa%ppm2021-11-13 14:11:59
12444weather808078.7°C960.95hPa%ppm2021-11-13 13:56:56
12443weather808078.89°C960.93hPa%ppm2021-11-13 13:41:55
12442weather808079°C960.81hPa%ppm2021-11-13 13:26:53
12441weather808078.8°C960.91hPa%ppm2021-11-13 13:11:51
12440weather808079°C961.02hPa%ppm2021-11-13 12:56:51
12439weather808078.89°C960.96hPa%ppm2021-11-13 12:41:50
12438weather808078.8°C961.11hPa%ppm2021-11-13 12:26:48
12437weather808078.7°C961.2hPa%ppm2021-11-13 12:11:46
12436weather808078.5°C961.06hPa%ppm2021-11-13 11:56:44
12435weather808078.6°C961.24hPa%ppm2021-11-13 11:41:42
12434weather808078.3°C961.19hPa%ppm2021-11-13 11:26:40
12433weather808078.39°C961.14hPa%ppm2021-11-13 11:11:38
12432weather808078.1°C961.21hPa%ppm2021-11-13 10:56:36
12431weather808077.9°C961.15hPa%ppm2021-11-13 10:41:34
12430weather808078.5°C961.12hPa%ppm2021-11-13 10:26:34
12429weather808078.89°C961.11hPa%ppm2021-11-13 10:11:31
12428weather808078.6°C961.09hPa%ppm2021-11-13 09:56:28
12427weather808078.39°C961.23hPa%ppm2021-11-13 09:41:26
12426weather808077.3°C960.81hPa%ppm2021-11-13 09:26:23
12425weather808076.9°C961hPa%ppm2021-11-13 09:11:22
12424weather808076.2°C961.08hPa%ppm2021-11-13 08:56:20
12423weather808076.2°C961.26hPa%ppm2021-11-13 08:41:18
12422weather808075.9°C961.4hPa%ppm2021-11-13 08:26:18
12421weather808075.9°C961.67hPa%ppm2021-11-13 08:11:16
12420weather808075.9°C961.41hPa%ppm2021-11-13 07:56:13
12419weather808075.3°C961.41hPa%ppm2021-11-13 07:41:12
12418weather808075.3°C961.35hPa%ppm2021-11-13 07:26:09
12417weather808075.7°C961.35hPa%ppm2021-11-13 07:11:07
12416weather808075.7°C961.29hPa%ppm2021-11-13 06:56:06
12415weather808075.9°C961.25hPa%ppm2021-11-13 06:41:04
12414weather808076°C961.23hPa%ppm2021-11-13 06:26:03
12413weather808076°C961.29hPa%ppm2021-11-13 06:11:01
12412weather808075.7°C961.16hPa%ppm2021-11-13 05:55:59
12411weather808075.9°C961.01hPa%ppm2021-11-13 05:40:58
12410weather808076°C960.91hPa%ppm2021-11-13 05:25:54
12409weather808075.9°C960.71hPa%ppm2021-11-13 05:10:53
12408weather808076.3°C960.49hPa%ppm2021-11-13 04:55:50
12407weather808076.1°C960.6hPa%ppm2021-11-13 04:40:48
12406weather808076.2°C960.62hPa%ppm2021-11-13 04:25:47
12405weather808076.4°C960.53hPa%ppm2021-11-13 04:10:46
12404weather808076.1°C960.47hPa%ppm2021-11-13 03:55:42
12403weather808076.1°C960.54hPa%ppm2021-11-13 03:40:40
12402weather808076.3°C960.37hPa%ppm2021-11-13 03:25:39
12401weather808076.1°C960.52hPa%ppm2021-11-13 03:10:38
12400weather808076.2°C960.38hPa%ppm2021-11-13 02:55:36
12399weather808076°C960.57hPa%ppm2021-11-13 02:40:33
12398weather808075.9°C960.75hPa%ppm2021-11-13 02:25:32
12397weather808075.9°C960.81hPa%ppm2021-11-13 02:10:30
12396weather808075.9°C960.79hPa%ppm2021-11-13 01:55:27
12395weather808076°C961.02hPa%ppm2021-11-13 01:40:27
12394weather808076°C961.14hPa%ppm2021-11-13 01:25:25
12393weather808075.8°C960.96hPa%ppm2021-11-13 01:10:23
12392weather808076.2°C961.21hPa%ppm2021-11-13 00:55:23
12391weather808076.1°C961.36hPa%ppm2021-11-13 00:40:21
12390weather808075.8°C961.45hPa%ppm2021-11-13 00:25:19
12389weather808076°C961.51hPa%ppm2021-11-13 00:10:18
12388weather808076.1°C961.61hPa%ppm2021-11-12 23:55:16
12387weather808075.9°C961.48hPa%ppm2021-11-12 23:40:13
12386weather808075.9°C961.58hPa%ppm2021-11-12 23:39:55
12385weather808076.3°C961.48hPa%ppm2021-11-12 23:24:53
12384weather808076.2°C961.57hPa%ppm2021-11-12 23:09:51
12383weather808076.2°C961.65hPa%ppm2021-11-12 22:54:49
12382weather808076.5°C961.71hPa%ppm2021-11-12 22:39:49
12381weather808076.3°C961.82hPa%ppm2021-11-12 22:24:48
12380weather808076.3°C961.98hPa%ppm2021-11-12 22:09:43
12379weather808076.3°C961.94hPa%ppm2021-11-12 21:54:42
12378weather808076.2°C961.81hPa%ppm2021-11-12 21:39:39
12377weather808076.3°C961.86hPa%ppm2021-11-12 21:24:37
12376weather808076.2°C961.89hPa%ppm2021-11-12 21:09:34
12375weather808076.2°C961.88hPa%ppm2021-11-12 20:54:31
12374weather808076.2°C961.79hPa%ppm2021-11-12 20:39:30
12373weather808076.2°C961.85hPa%ppm2021-11-12 20:24:28
12372weather808076.1°C961.95hPa%ppm2021-11-12 20:09:26
12371weather808076.3°C961.97hPa%ppm2021-11-12 19:54:24
12370weather808076.2°C962.04hPa%ppm2021-11-12 19:39:23
12369weather808075.9°C962.02hPa%ppm2021-11-12 19:24:20
12368weather808076.1°C962.18hPa%ppm2021-11-12 19:09:20
12367weather808075.8°C961.95hPa%ppm2021-11-12 18:54:19
12366weather808075.6°C962.1hPa%ppm2021-11-12 18:39:18
12365weather808075.7°C962.06hPa%ppm2021-11-12 18:24:16
12364weather808075.5°C961.89hPa%ppm2021-11-12 18:09:14
12363weather808075.7°C961.98hPa%ppm2021-11-12 17:54:13
12362weather808075.2°C961.83hPa%ppm2021-11-12 17:39:11
12361weather808075.6°C961.88hPa%ppm2021-11-12 17:24:10
12360weather808075.7°C961.81hPa%ppm2021-11-12 17:09:10
12359weather808075.4°C961.9hPa%ppm2021-11-12 16:54:08
12358weather808075.7°C961.87hPa%ppm2021-11-12 16:39:08
12357weather808075.7°C961.92hPa%ppm2021-11-12 16:24:06